Time;durP1;ratioP1;P1;durP2;ratioP2;P2;SDS_P1;SDS_P2;PMS_P1;PMS_P2;Temp;Humidity;BMP_temperature;BMP_pressure;BME280_temperature;BME280_humidity;BME280_pressure;Samples;Min_cycle;Max_cycle;Signal;HPM_P1;HPM_P2
2023/02/08 00:01:24;;;;;;;3.03;1.77;;;18.30;48.40;;;;;;6106258;23;20483;-81
2023/02/08 00:03:49;;;;;;;4.05;1.73;;;18.30;48.30;;;;;;6106645;23;20132;-81
2023/02/08 00:06:15;;;;;;;5.60;2.10;;;18.30;48.30;;;;;;6106270;23;20136;-81
2023/02/08 00:08:41;;;;;;;3.58;1.60;;;18.20;48.20;;;;;;6130755;23;20142;-81
2023/02/08 00:11:09;;;;;;;5.22;2.08;;;18.30;48.20;;;;;;6106569;23;20587;-81
2023/02/08 00:13:35;;;;;;;3.22;1.65;;;18.20;48.20;;;;;;6106009;23;20159;-81
2023/02/08 00:16:01;;;;;;;1.98;1.50;;;18.30;48.30;;;;;;6106670;23;20135;-81
2023/02/08 00:18:26;;;;;;;1.88;1.63;;;18.30;48.20;;;;;;6156433;23;20143;-81
2023/02/08 00:20:53;;;;;;;3.15;1.63;;;18.20;48.40;;;;;;6106019;23;20194;-82
2023/02/08 00:23:18;;;;;;;3.58;1.75;;;18.20;48.50;;;;;;6130683;23;20171;-82
2023/02/08 00:25:44;;;;;;;3.38;1.73;;;18.30;48.50;;;;;;6082042;23;20151;-82
2023/02/08 00:28:12;;;;;;;3.63;1.50;;;18.20;48.50;;;;;;6106037;23;20210;-82
2023/02/08 00:30:38;;;;;;;5.13;1.58;;;18.20;48.50;;;;;;6106219;23;20159;-81
2023/02/08 00:33:04;;;;;;;4.18;1.80;;;18.20;48.50;;;;;;6105889;23;20136;-82
2023/02/08 00:35:29;;;;;;;2.95;1.88;;;18.20;48.50;;;;;;6082688;23;20159;-81
2023/02/08 00:37:55;;;;;;;2.72;1.83;;;18.20;48.40;;;;;;6105790;23;20191;-82
2023/02/08 00:40:21;;;;;;;2.90;1.60;;;18.20;48.50;;;;;;6106111;23;20159;-81
2023/02/08 00:42:47;;;;;;;3.45;1.73;;;18.10;48.60;;;;;;6130305;23;20163;-81
2023/02/08 00:45:12;;;;;;;4.10;1.92;;;18.20;48.60;;;;;;6082272;23;20147;-82
2023/02/08 00:47:38;;;;;;;2.80;1.55;;;18.10;48.50;;;;;;6106477;23;20151;-81
2023/02/08 00:50:04;;;;;;;2.70;1.90;;;18.20;48.60;;;;;;6106137;23;20151;-81
2023/02/08 00:52:30;;;;;;;2.70;1.50;;;18.20;48.70;;;;;;6081920;23;20156;-81
2023/02/08 00:54:55;;;;;;;5.53;1.88;;;18.20;48.50;;;;;;6130514;23;20165;-81
2023/02/08 00:57:21;;;;;;;4.03;1.65;;;18.10;48.60;;;;;;6081680;23;20155;-81
2023/02/08 00:59:47;;;;;;;3.20;1.67;;;18.20;48.60;;;;;;6105799;23;20139;-83
2023/02/08 01:02:12;;;;;;;3.10;1.73;;;18.10;48.70;;;;;;6082463;23;20226;-81
2023/02/08 01:04:38;;;;;;;3.83;1.60;;;18.10;48.70;;;;;;6081831;23;20459;-81
2023/02/08 01:07:04;;;;;;;4.03;1.90;;;18.10;48.70;;;;;;6105773;23;20128;-81
2023/02/08 01:09:30;;;;;;;3.20;1.83;;;18.10;48.80;;;;;;6105665;23;20500;-81
2023/02/08 01:11:55;;;;;;;2.88;1.60;;;18.10;48.80;;;;;;6081541;23;20248;-81
2023/02/08 01:14:21;;;;;;;3.85;1.50;;;18.10;48.70;;;;;;6105801;23;20144;-81
2023/02/08 01:16:46;;;;;;;2.95;1.63;;;18.20;48.80;;;;;;6081733;23;20148;-82
2023/02/08 01:19:12;;;;;;;3.28;1.77;;;18.10;48.80;;;;;;6081644;23;20571;-81
2023/02/08 01:21:39;;;;;;;2.60;1.60;;;18.10;49.00;;;;;;6105809;23;20171;-81
2023/02/08 01:24:05;;;;;;;2.03;1.60;;;18.00;48.80;;;;;;6105619;23;20139;-81
2023/02/08 01:26:31;;;;;;;2.65;1.83;;;18.10;48.90;;;;;;6081496;23;20155;-81
2023/02/08 01:28:56;;;;;;;2.72;1.52;;;18.10;48.90;;;;;;6081652;23;20147;-81
2023/02/08 01:31:24;;;;;;;2.70;1.70;;;18.10;48.90;;;;;;6129957;23;20132;-82
2023/02/08 01:33:50;;;;;;;3.70;1.70;;;18.00;48.90;;;;;;6105678;23;20136;-81
2023/02/08 01:36:16;;;;;;;2.97;1.52;;;18.00;48.90;;;;;;6129840;23;20514;-81
2023/02/08 01:38:42;;;;;;;3.35;1.90;;;18.00;49.00;;;;;;6105521;23;20199;-81
2023/02/08 01:41:14;;;;;;;3.38;2.05;;;18.00;48.90;;;;;;6082580;23;20150;-81
2023/02/08 01:44:13;;;;;;;4.60;2.08;;;18.00;48.90;;;;;;6106336;23;20174;-81
2023/02/08 01:46:40;;;;;;;3.28;1.80;;;18.00;49.00;;;;;;6155858;23;20136;-81
2023/02/08 01:49:14;;;;;;;3.35;2.03;;;18.00;48.90;;;;;;6081446;23;20139;-81
2023/02/08 01:51:42;;;;;;;5.22;1.60;;;18.00;49.00;;;;;;6106508;23;20186;-81
2023/02/08 01:54:09;;;;;;;3.50;1.77;;;18.00;48.90;;;;;;6129734;23;20135;-81
2023/02/08 01:56:36;;;;;;;3.22;2.05;;;18.00;49.00;;;;;;6130000;23;20143;-81
2023/02/08 01:59:05;;;;;;;3.33;1.80;;;18.00;49.10;;;;;;6081399;23;20155;-81
2023/02/08 02:01:31;;;;;;;3.97;1.75;;;18.00;49.10;;;;;;6081702;23;20486;-81
2023/02/08 02:03:59;;;;;;;2.88;1.80;;;17.90;49.10;;;;;;6105457;23;20187;-81
2023/02/08 02:06:28;;;;;;;4.07;1.80;;;18.00;49.20;;;;;;6105702;23;20206;-82
2023/02/08 02:09:04;;;;;;;2.70;1.67;;;18.00;49.20;;;;;;6081600;23;20206;-81
2023/02/08 02:11:30;;;;;;;3.03;1.70;;;18.00;49.20;;;;;;6107226;23;20163;-82
2023/02/08 02:13:56;;;;;;;4.13;1.88;;;17.90;49.10;;;;;;6081517;23;20239;-82
2023/02/08 02:16:22;;;;;;;4.32;1.88;;;17.90;49.20;;;;;;6106009;23;20152;-81
2023/02/08 02:18:47;;;;;;;3.85;1.70;;;17.90;49.10;;;;;;6081826;23;20635;-81
2023/02/08 02:21:38;;;;;;;3.03;1.67;;;17.90;49.10;;;;;;6129626;23;20475;-81
2023/02/08 02:24:33;;;;;;;1.92;1.67;;;17.90;49.30;;;;;;6110279;23;20191;-81
2023/02/08 02:27:21;;;;;;;3.38;1.90;;;17.90;49.10;;;;;;6155558;23;20576;-81
2023/02/08 02:30:03;;;;;;;3.90;1.70;;;17.90;49.10;;;;;;6155528;23;20139;-83
2023/02/08 02:33:03;;;;;;;3.25;1.85;;;17.90;49.20;;;;;;6132192;23;20142;-81
2023/02/08 02:35:55;;;;;;;2.13;1.60;;;18.00;49.40;;;;;;6112556;23;20158;-82
2023/02/08 02:38:46;;;;;;;3.50;1.60;;;17.90;49.30;;;;;;6087740;23;20198;-81
2023/02/08 02:44:20;;;;;;;2.53;1.58;;;17.90;49.30;;;;;;6115746;23;20572;-82
2023/02/08 02:46:49;;;;;;;2.63;1.92;;;17.90;49.30;;;;;;6108959;23;20135;-82
2023/02/08 02:49:25;;;;;;;3.42;1.63;;;17.90;49.40;;;;;;6107786;23;20132;-82
2023/02/08 02:51:57;;;;;;;2.75;1.80;;;17.80;49.40;;;;;;6107553;23;20136;-82
2023/02/08 02:54:26;;;;;;;3.50;1.90;;;17.90;49.40;;;;;;6107375;23;20142;-82
2023/02/08 02:56:55;;;;;;;3.05;1.80;;;17.80;49.50;;;;;;6107556;23;20136;-81
2023/02/08 02:59:20;;;;;;;2.95;2.03;;;17.80;49.50;;;;;;6107313;23;20197;-82
2023/02/08 03:01:46;;;;;;;3.72;1.80;;;17.80;49.40;;;;;;6107254;23;20167;-81
2023/02/08 03:04:15;;;;;;;2.50;1.65;;;17.80;49.40;;;;;;6082848;23;20143;-82
2023/02/08 03:06:58;;;;;;;2.08;1.60;;;17.90;49.30;;;;;;6083592;23;20210;-82
2023/02/08 03:09:30;;;;;;;3.03;1.60;;;17.90;49.40;;;;;;6084229;23;20147;-81
2023/02/08 03:12:01;;;;;;;2.72;1.70;;;17.90;49.50;;;;;;6107323;23;20210;-82
2023/02/08 03:14:40;;;;;;;2.70;1.65;;;17.80;49.50;;;;;;6108020;23;20597;-82
2023/02/08 03:17:33;;;;;;;4.80;2.00;;;17.80;50.10;;;;;;6108995;23;20502;-82
2023/02/08 03:20:06;;;;;;;2.95;1.50;;;17.80;49.60;;;;;;6110326;23;20235;-81
2023/02/08 03:22:48;;;;;;;4.57;1.90;;;17.80;49.50;;;;;;6106984;23;20179;-82
2023/02/08 03:25:22;;;;;;;2.75;1.70;;;17.80;49.60;;;;;;6131067;23;20178;-81
2023/02/08 03:27:54;;;;;;;3.60;1.60;;;17.80;49.60;;;;;;6083763;23;20176;-81
2023/02/08 03:30:33;;;;;;;4.70;2.00;;;17.80;49.60;;;;;;6083612;23;20473;-82
2023/02/08 03:33:04;;;;;;;3.33;1.75;;;17.80;49.60;;;;;;6133655;23;20547;-81
2023/02/08 03:35:35;;;;;;;2.80;1.60;;;17.80;49.70;;;;;;6107546;23;20156;-81
2023/02/08 03:38:04;;;;;;;2.10;1.75;;;17.80;49.60;;;;;;6083344;23;20211;-81
2023/02/08 03:40:34;;;;;;;4.18;1.77;;;17.80;49.60;;;;;;6106955;23;20158;-81
2023/02/08 03:43:02;;;;;;;2.75;1.77;;;17.80;50.10;;;;;;6107229;23;20167;-81
2023/02/08 03:45:30;;;;;;;3.85;1.70;;;17.80;49.70;;;;;;6156903;23;20136;-82
2023/02/08 03:47:56;;;;;;;3.08;1.98;;;17.80;49.70;;;;;;6082666;23;20151;-81
2023/02/08 03:50:22;;;;;;;4.10;1.90;;;17.70;49.70;;;;;;6082950;23;20602;-82
2023/02/08 03:52:48;;;;;;;3.60;1.70;;;17.70;49.70;;;;;;6106418;23;20136;-82
2023/02/08 03:55:18;;;;;;;3.28;1.70;;;17.70;49.60;;;;;;6106562;23;20237;-82
2023/02/08 03:58:03;;;;;;;2.65;1.70;;;17.80;49.80;;;;;;6107071;23;20148;-82
2023/02/08 04:00:29;;;;;;;2.20;1.67;;;17.70;49.70;;;;;;6108968;23;20155;-82
2023/02/08 04:03:01;;;;;;;3.38;1.40;;;17.70;49.70;;;;;;6082439;23;20186;-81
2023/02/08 04:05:27;;;;;;;2.00;1.45;;;17.80;49.70;;;;;;6083332;23;20540;-82
2023/02/08 04:07:52;;;;;;;2.00;1.65;;;17.70;49.80;;;;;;6130623;23;20155;-81
2023/02/08 04:10:18;;;;;;;3.35;1.67;;;17.70;49.80;;;;;;6131042;23;20135;-81
2023/02/08 04:12:44;;;;;;;2.92;1.52;;;17.70;49.80;;;;;;6082294;23;20147;-81
2023/02/08 04:15:10;;;;;;;4.03;1.60;;;17.70;49.80;;;;;;6082279;23;20652;-82
2023/02/08 04:17:35;;;;;;;3.00;1.77;;;17.70;49.80;;;;;;6082476;23;20161;-81
2023/02/08 04:20:01;;;;;;;2.00;1.35;;;17.70;49.90;;;;;;6105979;23;20479;-81
2023/02/08 04:22:27;;;;;;;3.03;1.65;;;17.70;49.90;;;;;;6083020;23;20211;-81
2023/02/08 04:24:52;;;;;;;2.25;1.80;;;17.70;49.90;;;;;;6130604;23;20189;-81
2023/02/08 04:27:18;;;;;;;2.67;1.52;;;17.70;49.80;;;;;;6106488;23;20151;-81
2023/02/08 04:29:44;;;;;;;2.53;1.40;;;17.70;49.80;;;;;;6156460;23;20586;-81
2023/02/08 04:32:10;;;;;;;2.90;1.70;;;17.70;49.90;;;;;;6130427;23;20135;-81
2023/02/08 04:34:37;;;;;;;3.83;1.70;;;17.70;49.80;;;;;;6082241;23;20646;-81
2023/02/08 04:37:03;;;;;;;2.92;1.70;;;17.70;49.90;;;;;;6130470;23;20136;-82
2023/02/08 04:39:29;;;;;;;2.28;1.77;;;17.70;49.80;;;;;;6081887;23;20198;-82
2023/02/08 04:41:54;;;;;;;2.88;1.80;;;17.70;49.80;;;;;;6105792;23;20545;-82
2023/02/08 04:44:20;;;;;;;3.30;1.50;;;17.70;49.90;;;;;;6130465;23;20507;-82
2023/02/08 04:46:46;;;;;;;2.45;1.90;;;17.70;49.80;;;;;;6082292;23;20173;-82
2023/02/08 04:49:11;;;;;;;2.28;1.40;;;17.70;49.80;;;;;;6106460;23;20201;-82
2023/02/08 04:51:37;;;;;;;2.22;1.80;;;17.70;49.80;;;;;;6105791;23;20143;-82
2023/02/08 04:54:03;;;;;;;2.08;1.60;;;17.60;49.90;;;;;;6130224;23;20524;-81
2023/02/08 04:56:28;;;;;;;4.18;1.70;;;17.70;49.80;;;;;;6081802;23;20456;-82
2023/02/08 04:58:54;;;;;;;2.42;1.70;;;17.70;49.90;;;;;;6081711;23;20483;-80
2023/02/08 05:01:20;;;;;;;4.18;1.90;;;17.70;49.90;;;;;;6105437;23;20297;-81
2023/02/08 05:03:46;;;;;;;3.75;1.80;;;17.70;50.00;;;;;;6081548;23;20706;-81
2023/02/08 05:06:12;;;;;;;2.70;1.67;;;17.60;50.60;;;;;;6105797;23;20132;-81
2023/02/08 05:08:37;;;;;;;2.60;1.55;;;17.70;50.00;;;;;;6105868;23;20166;-81
2023/02/08 05:11:03;;;;;;;3.33;1.70;;;17.60;50.00;;;;;;6130399;23;20128;-81
2023/02/08 05:13:29;;;;;;;3.15;1.70;;;17.70;50.00;;;;;;6130358;23;20467;-81
2023/02/08 05:15:55;;;;;;;3.20;1.90;;;17.60;49.90;;;;;;6106172;23;20136;-81
2023/02/08 05:18:20;;;;;;;3.22;1.40;;;17.60;49.90;;;;;;6082457;23;20175;-81
2023/02/08 05:20:54;;;;;;;5.60;1.80;;;17.60;49.80;;;;;;6081837;23;20277;-82
2023/02/08 05:23:19;;;;;;;4.03;1.65;;;17.60;50.00;;;;;;6105887;23;20175;-81
2023/02/08 05:25:45;;;;;;;2.47;1.70;;;17.60;49.80;;;;;;6105510;23;20228;-81
2023/02/08 05:28:10;;;;;;;2.45;1.50;;;17.70;50.00;;;;;;6105749;23;20527;-82
2023/02/08 05:30:37;;;;;;;3.92;1.80;;;17.60;50.00;;;;;;6105563;23;20138;-82
2023/02/08 05:33:03;;;;;;;3.25;1.75;;;17.60;50.00;;;;;;6105450;23;20174;-82
2023/02/08 05:35:28;;;;;;;3.65;1.58;;;17.60;50.10;;;;;;6105880;23;20457;-81
2023/02/08 05:37:54;;;;;;;3.17;1.60;;;17.60;50.10;;;;;;6129853;23;20198;-80
2023/02/08 05:40:20;;;;;;;1.63;1.48;;;17.60;50.10;;;;;;6155912;23;20194;-81
2023/02/08 05:42:46;;;;;;;2.33;1.70;;;17.60;50.10;;;;;;6105285;23;20207;-81
2023/02/08 05:45:13;;;;;;;2.97;1.60;;;17.60;50.10;;;;;;6082123;23;20562;-81
2023/02/08 05:47:38;;;;;;;2.58;1.48;;;17.60;50.10;;;;;;6081731;23;20198;-81
2023/02/08 05:50:04;;;;;;;2.40;1.48;;;17.60;50.00;;;;;;6105429;23;20214;-81
2023/02/08 05:52:30;;;;;;;2.50;1.80;;;17.60;50.00;;;;;;6129780;23;20148;-81
2023/02/08 05:54:56;;;;;;;2.97;1.50;;;17.60;50.10;;;;;;6081426;23;20153;-81
2023/02/08 05:57:21;;;;;;;2.53;1.50;;;17.60;50.10;;;;;;6105371;23;20159;-81
2023/02/08 05:59:47;;;;;;;2.38;1.80;;;17.60;50.10;;;;;;6081959;23;20147;-83
2023/02/08 06:02:13;;;;;;;3.05;1.83;;;17.60;50.10;;;;;;6105686;23;20169;-81
2023/02/08 06:04:39;;;;;;;3.30;1.60;;;17.60;50.20;;;;;;6105336;23;20171;-82
2023/02/08 06:07:05;;;;;;;3.30;1.98;;;17.60;50.10;;;;;;6129782;23;20139;-81
2023/02/08 06:09:30;;;;;;;3.08;1.67;;;17.60;50.10;;;;;;6129827;23;20163;-81
2023/02/08 06:11:56;;;;;;;2.03;1.60;;;17.60;50.10;;;;;;6131016;23;20150;-81
2023/02/08 06:14:21;;;;;;;3.35;1.80;;;17.50;50.10;;;;;;6107349;23;20210;-82
2023/02/08 06:16:47;;;;;;;2.95;1.70;;;17.60;50.10;;;;;;6107772;23;20158;-82
2023/02/08 06:19:13;;;;;;;4.38;1.85;;;17.60;50.10;;;;;;6083474;23;20205;-81
2023/02/08 06:21:39;;;;;;;2.85;1.60;;;17.60;50.20;;;;;;6083937;23;20275;-81
2023/02/08 06:24:05;;;;;;;3.03;1.70;;;17.60;50.20;;;;;;6107578;23;20139;-81
2023/02/08 06:26:32;;;;;;;4.35;1.60;;;17.60;50.20;;;;;;6132009;23;20135;-81
2023/02/08 06:28:58;;;;;;;2.45;1.55;;;17.60;50.10;;;;;;6157780;23;20127;-82
2023/02/08 06:31:24;;;;;;;3.15;1.77;;;17.60;50.10;;;;;;6131780;23;20521;-82
2023/02/08 06:33:50;;;;;;;2.97;1.52;;;17.60;50.10;;;;;;6131934;23;20228;-82
2023/02/08 06:36:15;;;;;;;2.63;2.00;;;17.60;50.10;;;;;;6131641;23;20152;-81
2023/02/08 06:38:41;;;;;;;2.42;1.58;;;17.60;50.10;;;;;;6107159;23;20533;-82
2023/02/08 06:41:06;;;;;;;2.65;1.50;;;17.60;50.10;;;;;;6157893;23;20151;-81
2023/02/08 06:43:32;;;;;;;2.60;1.63;;;17.50;50.10;;;;;;6133579;23;20170;-81
2023/02/08 06:45:58;;;;;;;2.83;1.60;;;17.60;50.10;;;;;;6158441;23;20136;-81
2023/02/08 06:48:23;;;;;;;3.35;1.70;;;17.60;50.20;;;;;;6107598;23;20148;-81
2023/02/08 06:50:52;;;;;;;2.95;1.52;;;17.50;50.10;;;;;;6083249;23;20495;-82
2023/02/08 06:53:18;;;;;;;3.13;1.70;;;17.60;50.20;;;;;;6108071;23;20140;-81
2023/02/08 06:55:47;;;;;;;3.30;1.73;;;17.60;50.10;;;;;;6083318;23;20244;-81
2023/02/08 06:58:13;;;;;;;4.93;1.65;;;17.60;50.10;;;;;;6106857;23;20526;-81
2023/02/08 07:00:39;;;;;;;2.50;1.70;;;17.60;50.10;;;;;;6131401;23;20155;-81
2023/02/08 07:03:04;;;;;;;2.88;1.67;;;17.50;50.10;;;;;;6131505;23;20489;-81
2023/02/08 07:05:33;;;;;;;3.33;1.50;;;17.50;50.20;;;;;;6082856;23;20521;-81
2023/02/08 07:07:59;;;;;;;2.97;1.60;;;17.60;50.20;;;;;;6107795;23;20160;-81
2023/02/08 07:10:24;;;;;;;2.47;1.63;;;17.60;50.20;;;;;;6131796;23;20198;-81
2023/02/08 07:12:50;;;;;;;5.22;1.98;;;17.60;50.10;;;;;;6133425;23;20140;-83
2023/02/08 07:15:16;;;;;;;4.25;1.80;;;17.60;50.10;;;;;;6085818;23;20210;-82
2023/02/08 07:17:41;;;;;;;2.15;1.60;;;17.60;50.20;;;;;;6134207;23;20163;-83
2023/02/08 07:20:08;;;;;;;2.20;1.40;;;17.60;50.20;;;;;;6134718;23;20563;-83
2023/02/08 07:22:33;;;;;;;2.35;1.60;;;17.60;50.20;;;;;;6087086;23;20190;-83
2023/02/08 07:25:07;;;;;;;3.00;1.65;;;17.60;50.10;;;;;;6108881;23;20136;-85
2023/02/08 07:27:33;;;;;;;2.15;1.65;;;17.60;50.10;;;;;;6111632;23;20131;-84
2023/02/08 07:30:08;;;;;;;3.85;1.67;;;17.60;50.10;;;;;;6085634;23;20151;-85
2023/02/08 07:32:53;;;;;;;3.42;1.75;;;17.60;50.10;;;;;;6110180;23;20158;-84
2023/02/08 07:35:26;;;;;;;2.45;1.60;;;17.70;50.10;;;;;;6109908;23;20155;-86
2023/02/08 07:37:54;;;;;;;3.10;1.65;;;17.70;49.90;;;;;;6132675;23;20242;-83
2023/02/08 07:40:27;;;;;;;3.33;1.63;;;17.80;49.80;;;;;;6108400;23;20190;-85
2023/02/08 07:42:53;;;;;;;4.65;1.73;;;17.80;49.60;;;;;;6107199;23;20178;-84
2023/02/08 07:45:34;;;;;;;;;;;;;;;;;;;;;
2023/02/08 07:48:10;;;;;;;2.45;1.67;;;18.00;49.40;;;;;;6005345;23;20532;-85
2023/02/08 07:51:04;;;;;;;6.15;1.88;;;18.00;49.20;;;;;;6047607;23;20249;-86
2023/02/08 07:53:48;;;;;;;3.80;1.80;;;18.00;49.30;;;;;;6025028;23;20157;-83
2023/02/08 07:56:14;;;;;;;4.45;1.70;;;18.10;49.40;;;;;;6070741;23;20235;-82
2023/02/08 07:59:11;;;;;;;2.55;1.52;;;18.10;49.40;;;;;;6046428;23;20164;-80
2023/02/08 08:01:36;;;;;;;3.72;1.80;;;18.10;49.30;;;;;;5959670;24;20262;-80
2023/02/08 08:04:57;;;;;;;;;;;;;;;;;;;;;
2023/02/08 08:07:23;;;;;;;3.08;1.50;;;18.20;49.20;;;;;;5870660;24;20233;-82
2023/02/08 08:09:49;;;;;;;3.30;1.65;;;18.30;49.20;;;;;;5872597;24;20212;-80
2023/02/08 08:12:14;;;;;;;3.85;1.60;;;18.20;49.10;;;;;;5898140;24;20184;-80
2023/02/08 08:14:40;;;;;;;4.93;1.48;;;18.20;49.40;;;;;;5903738;24;20149;-80
2023/02/08 08:17:06;;;;;;;2.95;1.65;;;18.20;49.40;;;;;;5903593;24;20160;-81
2023/02/08 08:19:31;;;;;;;3.10;1.40;;;18.20;49.60;;;;;;5881610;24;20164;-79
2023/02/08 08:21:57;;;;;;;3.75;1.70;;;18.20;49.60;;;;;;5881396;24;20240;-79
2023/02/08 08:24:34;;;;;;;3.63;1.40;;;18.20;49.40;;;;;;5903458;24;20172;-79
2023/02/08 08:27:04;;;;;;;2.80;1.50;;;18.20;49.50;;;;;;5903891;24;20164;-79
2023/02/08 08:29:32;;;;;;;5.90;1.77;;;18.20;49.50;;;;;;5903266;24;20186;-79
2023/02/08 08:31:57;;;;;;;2.95;1.40;;;18.20;49.40;;;;;;5903146;24;20168;-79
2023/02/08 08:34:55;;;;;;;3.42;1.50;;;18.30;49.40;;;;;;5926104;24;20149;-80
2023/02/08 08:37:20;;;;;;;2.78;1.30;;;18.30;49.20;;;;;;5956455;23;20158;-80
2023/02/08 08:39:46;;;;;;;2.53;1.70;;;18.30;49.20;;;;;;6156523;23;20195;-80
2023/02/08 08:42:11;;;;;;;4.03;1.70;;;18.40;49.20;;;;;;6105780;23;20179;-80
2023/02/08 08:44:40;;;;;;;3.10;1.70;;;18.40;49.20;;;;;;6105620;23;20158;-80
2023/02/08 08:47:07;;;;;;;3.25;1.42;;;18.40;49.20;;;;;;6155620;23;20132;-80
2023/02/08 08:49:33;;;;;;;3.72;1.42;;;18.40;49.50;;;;;;6105486;23;20567;-80
2023/02/08 08:52:00;;;;;;;4.03;1.55;;;18.40;49.50;;;;;;6106452;23;20250;-80
2023/02/08 08:54:31;;;;;;;3.63;1.55;;;18.40;49.50;;;;;;6130241;23;20136;-80
2023/02/08 08:57:00;;;;;;;3.50;1.52;;;18.40;49.80;;;;;;6106693;23;20215;-80
2023/02/08 08:59:35;;;;;;;1.95;1.50;;;18.50;49.80;;;;;;6131202;23;20163;-80
2023/02/08 09:02:01;;;;;;;1.80;1.35;;;18.50;49.60;;;;;;6156221;23;20166;-80
2023/02/08 09:04:26;;;;;;;1.67;1.50;;;18.50;49.70;;;;;;6105356;23;20204;-80
2023/02/08 09:06:52;;;;;;;1.50;1.33;;;18.50;49.70;;;;;;6131447;23;20132;-81
2023/02/08 09:09:18;;;;;;;2.47;1.75;;;18.50;49.70;;;;;;6082350;23;20642;-81
2023/02/08 09:11:44;;;;;;;3.25;1.45;;;18.50;49.80;;;;;;6107624;23;20140;-81
2023/02/08 09:14:10;;;;;;;2.75;1.63;;;18.40;50.00;;;;;;6083663;23;20174;-80
2023/02/08 09:16:36;;;;;;;3.53;1.58;;;18.50;50.00;;;;;;6131820;23;20202;-80
2023/02/08 09:19:05;;;;;;;4.00;1.63;;;18.50;49.90;;;;;;6131674;23;20144;-79
2023/02/08 09:21:34;;;;;;;3.53;1.20;;;18.60;49.90;;;;;;6107132;23;20162;-79
2023/02/08 09:24:00;;;;;;;3.80;1.23;;;18.50;50.00;;;;;;6131049;23;20154;-79
2023/02/08 09:26:26;;;;;;;1.63;1.10;;;18.50;50.30;;;;;;6105463;23;20131;-79
2023/02/08 09:28:52;;;;;;;4.20;1.40;;;18.50;50.30;;;;;;6155313;23;20143;-79
2023/02/08 09:31:20;;;;;;;3.97;1.15;;;18.50;50.50;;;;;;6155803;23;20147;-79
2023/02/08 09:33:47;;;;;;;2.05;1.33;;;18.40;50.20;;;;;;6081060;23;20175;-80
2023/02/08 09:36:13;;;;;;;6.45;1.58;;;18.50;50.00;;;;;;6155041;23;20207;-79
2023/02/08 09:38:42;;;;;;;6.28;1.52;;;18.60;50.40;;;;;;6155142;23;20191;-78
2023/02/08 09:41:34;;;;;;;3.97;1.40;;;18.50;50.00;;;;;;6128996;23;20511;-79
2023/02/08 09:44:14;;;;;;;3.38;1.50;;;18.50;50.40;;;;;;6134871;23;20499;-79
2023/02/08 09:46:42;;;;;;;3.35;1.45;;;18.50;50.40;;;;;;6155051;23;20687;-80
2023/02/08 09:49:13;;;;;;;10.27;1.77;;;18.50;50.60;;;;;;6106277;23;20135;-79
2023/02/08 09:51:50;;;;;;;2.40;1.23;;;18.50;50.60;;;;;;6104776;23;20161;-79
2023/02/08 09:54:24;;;;;;;5.53;1.33;;;18.50;50.50;;;;;;6155267;23;20139;-80
2023/02/08 09:56:50;;;;;;;6.65;1.40;;;18.50;50.70;;;;;;6129225;23;20131;-79
2023/02/08 09:59:21;;;;;;;3.25;1.40;;;18.60;50.70;;;;;;6155089;23;20138;-79
2023/02/08 10:01:50;;;;;;;3.38;1.35;;;18.60;50.50;;;;;;6081644;23;20152;-79
2023/02/08 10:04:50;;;;;;;7.40;1.63;;;18.60;50.50;;;;;;6156391;23;20143;-79
2023/02/08 10:07:32;;;;;;;3.67;1.50;;;18.50;50.70;;;;;;6155049;23;20143;-78
2023/02/08 10:10:00;;;;;;;4.25;1.33;;;18.60;50.90;;;;;;6105562;23;20516;-78
2023/02/08 10:12:37;;;;;;;3.70;1.30;;;18.50;51.10;;;;;;6105071;23;20564;-78
2023/02/08 10:15:27;;;;;;;8.55;1.50;;;18.50;51.30;;;;;;6155881;23;20191;-78
2023/02/08 10:18:10;;;;;;;4.05;1.35;;;18.50;51.10;;;;;;6134638;23;20568;-78
2023/02/08 10:21:12;;;;;;;2.25;1.50;;;18.50;51.20;;;;;;6156509;23;20219;-79
2023/02/08 10:23:56;;;;;;;2.42;1.50;;;18.50;51.30;;;;;;6135794;23;20501;-79
2023/02/08 10:26:42;;;;;;;4.55;1.80;;;18.40;51.40;;;;;;6130474;23;20198;-80
2023/02/08 10:29:28;;;;;;;4.45;1.63;;;18.50;51.30;;;;;;6099834;23;20160;-81
2023/02/08 10:32:06;;;;;;;3.20;1.33;;;18.50;51.40;;;;;;6097195;23;20193;-80
2023/02/08 10:34:50;;;;;;;5.07;1.48;;;18.50;51.40;;;;;;6094505;23;20192;-79
2023/02/08 10:37:18;;;;;;;5.60;1.27;;;18.50;51.50;;;;;;6094759;23;20140;-80
2023/02/08 10:39:52;;;;;;;6.55;1.45;;;18.50;51.60;;;;;;6093925;23;20600;-79
2023/02/08 10:42:21;;;;;;;1.63;1.25;;;18.50;51.40;;;;;;6094453;23;20171;-79
2023/02/08 10:44:55;;;;;;;3.55;1.15;;;18.60;51.40;;;;;;6071087;23;20307;-79
2023/02/08 10:47:42;;;;;;;5.40;1.23;;;18.60;51.30;;;;;;6095049;23;20140;-80
2023/02/08 10:50:30;;;;;;;3.70;1.25;;;18.60;51.30;;;;;;6095165;23;20148;-80
2023/02/08 10:52:55;;;;;;;2.95;1.23;;;18.60;51.30;;;;;;6094952;23;20136;-79
2023/02/08 10:55:21;;;;;;;2.33;1.10;;;18.60;51.20;;;;;;6095534;23;20171;-81
2023/02/08 10:57:48;;;;;;;2.78;1.10;;;18.60;51.10;;;;;;6095942;23;20147;-79
2023/02/08 11:00:21;;;;;;;2.38;1.15;;;18.60;51.10;;;;;;6132902;23;20570;-80
2023/02/08 11:02:48;;;;;;;4.78;1.30;;;18.60;51.10;;;;;;6108540;23;20167;-80
2023/02/08 11:05:17;;;;;;;1.83;1.30;;;18.60;51.10;;;;;;6157708;23;20132;-80
2023/02/08 11:07:42;;;;;;;2.92;1.00;;;18.70;51.10;;;;;;6156747;23;20131;-79
2023/02/08 11:10:21;;;;;;;2.35;1.10;;;18.60;51.10;;;;;;6131585;23;20151;-79
2023/02/08 11:13:02;;;;;;;2.67;1.13;;;18.60;51.10;;;;;;6130912;23;20166;-79
2023/02/08 11:15:48;;;;;;;3.25;1.15;;;18.60;51.00;;;;;;6131393;23;20156;-80
2023/02/08 11:18:25;;;;;;;5.90;1.52;;;18.60;51.00;;;;;;6107035;23;20187;-79
2023/02/08 11:20:53;;;;;;;4.22;1.13;;;18.60;51.00;;;;;;6131288;23;20263;-81
2023/02/08 11:23:27;;;;;;;4.55;1.20;;;18.60;51.00;;;;;;6131813;23;20194;-80
2023/02/08 11:25:53;;;;;;;6.10;1.17;;;18.70;51.00;;;;;;6156871;23;20135;-80
2023/02/08 11:28:25;;;;;;;4.28;1.30;;;18.70;51.00;;;;;;6131050;23;20138;-80
2023/02/08 11:30:56;;;;;;;5.60;1.23;;;18.70;51.00;;;;;;6131936;23;20238;-80
2023/02/08 11:33:22;;;;;;;2.10;1.27;;;18.70;51.00;;;;;;6131416;23;20184;-84
2023/02/08 11:35:58;;;;;;;4.25;1.40;;;18.60;51.00;;;;;;6083082;23;20155;-83
2023/02/08 11:38:27;;;;;;;5.50;1.30;;;18.60;51.00;;;;;;6106970;23;20187;-82
2023/02/08 11:40:55;;;;;;;4.25;1.15;;;18.60;50.90;;;;;;6108138;23;20198;-81
2023/02/08 11:43:24;;;;;;;4.30;1.40;;;18.70;50.80;;;;;;6106754;23;20187;-84
2023/02/08 11:45:49;;;;;;;2.35;1.13;;;18.70;50.80;;;;;;6131563;23;20142;-84
2023/02/08 11:48:21;;;;;;;2.72;1.30;;;18.60;50.80;;;;;;6106239;23;20488;-81
2023/02/08 11:50:53;;;;;;;2.10;1.10;;;18.60;50.80;;;;;;6106777;23;20441;-81
2023/02/08 11:53:26;;;;;;;2.45;0.95;;;18.60;50.80;;;;;;6107082;23;20143;-81
2023/02/08 11:56:20;;;;;;;2.72;1.10;;;18.60;50.80;;;;;;6157054;23;20194;-82
2023/02/08 11:59:16;;;;;;;3.28;1.27;;;18.60;50.90;;;;;;6112172;23;20563;-81
2023/02/08 12:01:42;;;;;;;2.15;1.10;;;18.60;50.80;;;;;;6106756;23;20156;-82
2023/02/08 12:04:10;;;;;;;3.83;1.20;;;18.60;50.60;;;;;;6108011;23;20179;-82
2023/02/08 12:07:10;;;;;;;3.42;1.17;;;18.70;50.70;;;;;;6106720;23;20183;-83
2023/02/08 12:10:02;;;;;;;4.13;1.10;;;18.60;50.60;;;;;;6157186;23;20143;-85
2023/02/08 12:12:48;;;;;;;1.77;1.10;;;18.60;50.70;;;;;;6157620;23;20203;-85
2023/02/08 12:15:21;;;;;;;3.50;1.23;;;18.60;50.70;;;;;;6108283;23;20159;-82
2023/02/08 12:18:13;;;;;;;2.15;0.98;;;18.60;50.70;;;;;;6107150;23;20190;-81
2023/02/08 12:20:42;;;;;;;4.95;1.25;;;18.60;50.80;;;;;;6134677;23;20210;-81
2023/02/08 12:23:29;;;;;;;3.85;1.10;;;18.60;50.60;;;;;;6130268;23;20494;-79
2023/02/08 12:26:29;;;;;;;2.00;1.23;;;18.70;50.60;;;;;;6155950;23;20132;-79
2023/02/08 12:29:19;;;;;;;1.33;1.10;;;18.60;50.60;;;;;;6129945;23;20159;-79
2023/02/08 12:31:58;;;;;;;1.30;0.98;;;18.60;50.50;;;;;;6133738;23;20207;-79
2023/02/08 12:34:39;;;;;;;1.40;0.95;;;18.60;50.60;;;;;;6083200;23;20148;-79
2023/02/08 12:43:39;;;;;;;2.22;1.27;;;18.60;50.60;;;;;;6104393;23;20187;-80
2023/02/08 12:46:16;;;;;;;2.42;1.20;;;18.50;50.70;;;;;;6126977;23;20149;-78
2023/02/08 12:49:19;;;;;;;2.30;1.10;;;18.60;50.60;;;;;;6126872;23;20627;-79
2023/02/08 12:51:58;;;;;;;2.38;1.25;;;18.60;50.70;;;;;;6126501;23;20132;-78
2023/02/08 12:54:29;;;;;;;1.55;1.15;;;18.50;50.70;;;;;;6126743;23;20167;-77
2023/02/08 12:56:55;;;;;;;1.88;1.05;;;18.50;50.60;;;;;;6101671;23;20541;-78
2023/02/08 12:59:27;;;;;;;2.05;1.08;;;18.50;50.50;;;;;;6127858;23;20180;-78
2023/02/08 13:01:58;;;;;;;2.67;1.20;;;18.50;50.50;;;;;;6128178;23;20136;-82
2023/02/08 13:04:27;;;;;;;2.50;1.10;;;18.60;50.50;;;;;;6102161;23;20129;-82
2023/02/08 13:06:58;;;;;;;2.05;0.90;;;18.60;50.40;;;;;;6101310;23;20133;-81
2023/02/08 13:09:37;;;;;;;3.55;1.30;;;18.60;50.40;;;;;;6076823;23;20128;-80
2023/02/08 13:12:11;;;;;;;2.45;1.00;;;18.60;50.30;;;;;;6018017;23;20292;-84
2023/02/08 13:14:43;;;;;;;1.23;1.13;;;18.60;50.30;;;;;;6017874;23;20157;-82
2023/02/08 13:17:29;;;;;;;2.95;1.25;;;18.60;50.30;;;;;;6064732;23;20209;-81